sensor_id;sensor_type;location;lat;lon;timestamp;pressure;altitude;pressure_sealevel;temperature;humidity
78665;BME280;67981;51.022;-2.870;2023-04-03T00:01:00;102673.34;;;4.47;80.46
78665;BME280;67981;51.022;-2.870;2023-04-03T00:03:26;102650.38;;;4.27;80.88
78665;BME280;67981;51.022;-2.870;2023-04-03T00:05:51;102665.69;;;4.27;80.62
78665;BME280;67981;51.022;-2.870;2023-04-03T00:08:17;102676.31;;;4.21;82.04
78665;BME280;67981;51.022;-2.870;2023-04-03T00:10:42;102668.28;;;4.17;81.97
78665;BME280;67981;51.022;-2.870;2023-04-03T00:13:08;102673.28;;;4.05;81.82
78665;BME280;67981;51.022;-2.870;2023-04-03T00:15:35;102661.13;;;4.03;81.45
78665;BME280;67981;51.022;-2.870;2023-04-03T00:18:01;102669.16;;;4.17;81.58
78665;BME280;67981;51.022;-2.870;2023-04-03T00:20:27;102665.31;;;4.12;81.01
78665;BME280;67981;51.022;-2.870;2023-04-03T00:22:53;102663.81;;;4.04;80.88
78665;BME280;67981;51.022;-2.870;2023-04-03T00:25:18;102663.69;;;4.13;81.07
78665;BME280;67981;51.022;-2.870;2023-04-03T00:27:43;102656.78;;;4.22;80.74
78665;BME280;67981;51.022;-2.870;2023-04-03T00:30:11;102663.69;;;4.23;81.15
78665;BME280;67981;51.022;-2.870;2023-04-03T00:32:38;102668.91;;;4.24;80.42
78665;BME280;67981;51.022;-2.870;2023-04-03T00:35:04;102656.38;;;4.27;80.28
78665;BME280;67981;51.022;-2.870;2023-04-03T00:37:29;102655.34;;;4.25;80.35
78665;BME280;67981;51.022;-2.870;2023-04-03T00:39:56;102652.28;;;4.29;79.92
78665;BME280;67981;51.022;-2.870;2023-04-03T00:42:21;102650.78;;;4.31;79.85
78665;BME280;67981;51.022;-2.870;2023-04-03T00:47:15;102654.19;;;4.32;79.58
78665;BME280;67981;51.022;-2.870;2023-04-03T00:49:42;102654.06;;;4.30;79.72
78665;BME280;67981;51.022;-2.870;2023-04-03T00:52:11;102652.53;;;4.32;79.86
78665;BME280;67981;51.022;-2.870;2023-04-03T00:54:38;102651.50;;;4.30;79.25
78665;BME280;67981;51.022;-2.870;2023-04-03T00:57:06;102652.53;;;4.32;79.27
78665;BME280;67981;51.022;-2.870;2023-04-03T00:59:35;102653.19;;;4.30;78.92
78665;BME280;67981;51.022;-2.870;2023-04-03T01:02:01;102649.13;;;4.22;79.23
78665;BME280;67981;51.022;-2.870;2023-04-03T01:04:34;102653.22;;;4.20;79.55
78665;BME280;67981;51.022;-2.870;2023-04-03T01:07:05;102647.84;;;4.07;80.42
78665;BME280;67981;51.022;-2.870;2023-04-03T01:09:32;102655.50;;;3.97;81.07
78665;BME280;67981;51.022;-2.870;2023-04-03T01:12:18;102655.91;;;3.91;81.72
78665;BME280;67981;51.022;-2.870;2023-04-03T01:14:45;102653.22;;;3.80;82.24
78665;BME280;67981;51.022;-2.870;2023-04-03T01:17:48;102646.84;;;3.75;82.18
78665;BME280;67981;51.022;-2.870;2023-04-03T01:25:42;102645.94;;;3.74;81.63
78665;BME280;67981;51.022;-2.870;2023-04-03T01:28:12;102639.19;;;3.75;81.60
78665;BME280;67981;51.022;-2.870;2023-04-03T01:31:10;102642.47;;;3.74;81.68
78665;BME280;67981;51.022;-2.870;2023-04-03T01:33:37;102629.06;;;3.66;81.29
78665;BME280;67981;51.022;-2.870;2023-04-03T01:36:03;102627.44;;;3.67;81.18
78665;BME280;67981;51.022;-2.870;2023-04-03T01:38:29;102634.44;;;3.69;81.13
78665;BME280;67981;51.022;-2.870;2023-04-03T01:40:54;102631.50;;;3.75;80.88
78665;BME280;67981;51.022;-2.870;2023-04-03T01:43:20;102639.56;;;3.79;80.99
78665;BME280;67981;51.022;-2.870;2023-04-03T01:45:45;102628.16;;;3.66;80.57
78665;BME280;67981;51.022;-2.870;2023-04-03T01:48:12;102633.81;;;3.72;80.73
78665;BME280;67981;51.022;-2.870;2023-04-03T01:50:38;102628.94;;;3.65;81.04
78665;BME280;67981;51.022;-2.870;2023-04-03T01:53:04;102629.84;;;3.65;81.30
78665;BME280;67981;51.022;-2.870;2023-04-03T01:55:29;102645.28;;;3.67;80.68
78665;BME280;67981;51.022;-2.870;2023-04-03T01:57:54;102632.03;;;3.61;81.05
78665;BME280;67981;51.022;-2.870;2023-04-03T02:00:20;102639.28;;;3.56;81.16
78665;BME280;67981;51.022;-2.870;2023-04-03T02:02:45;102634.03;;;3.55;81.52
78665;BME280;67981;51.022;-2.870;2023-04-03T02:05:11;102642.59;;;3.55;81.50
78665;BME280;67981;51.022;-2.870;2023-04-03T02:07:36;102651.53;;;3.50;81.42
78665;BME280;67981;51.022;-2.870;2023-04-03T02:10:02;102643.47;;;3.46;81.87
78665;BME280;67981;51.022;-2.870;2023-04-03T02:12:27;102629.06;;;3.46;81.62
78665;BME280;67981;51.022;-2.870;2023-04-03T02:14:53;102646.41;;;3.50;81.38
78665;BME280;67981;51.022;-2.870;2023-04-03T02:17:18;102646.28;;;3.49;81.88
78665;BME280;67981;51.022;-2.870;2023-04-03T02:19:43;102641.41;;;3.42;82.50
78665;BME280;67981;51.022;-2.870;2023-04-03T02:22:09;102647.03;;;3.38;82.79
78665;BME280;67981;51.022;-2.870;2023-04-03T02:24:35;102644.34;;;3.36;82.71
78665;BME280;67981;51.022;-2.870;2023-04-03T02:27:00;102637.31;;;3.24;82.98
78665;BME280;67981;51.022;-2.870;2023-04-03T02:29:25;102638.03;;;3.13;82.98
78665;BME280;67981;51.022;-2.870;2023-04-03T02:31:51;102643.50;;;3.07;83.74
78665;BME280;67981;51.022;-2.870;2023-04-03T02:34:16;102635.22;;;3.00;83.67
78665;BME280;67981;51.022;-2.870;2023-04-03T02:36:42;102638.38;;;2.97;83.90
78665;BME280;67981;51.022;-2.870;2023-04-03T02:39:08;102646.53;;;2.93;84.25
78665;BME280;67981;51.022;-2.870;2023-04-03T02:41:33;102638.31;;;2.77;84.81
78665;BME280;67981;51.022;-2.870;2023-04-03T02:44:02;102638.13;;;2.75;84.96
78665;BME280;67981;51.022;-2.870;2023-04-03T02:46:27;102646.44;;;2.73;85.32
78665;BME280;67981;51.022;-2.870;2023-04-03T02:48:52;102645.00;;;2.66;85.85
78665;BME280;67981;51.022;-2.870;2023-04-03T02:51:18;102636.28;;;2.54;86.21
78665;BME280;67981;51.022;-2.870;2023-04-03T02:53:43;102649.16;;;2.56;86.33
78665;BME280;67981;51.022;-2.870;2023-04-03T02:56:09;102652.31;;;2.53;86.09
78665;BME280;67981;51.022;-2.870;2023-04-03T02:58:34;102654.78;;;2.43;85.91
78665;BME280;67981;51.022;-2.870;2023-04-03T03:01:00;102655.44;;;2.41;86.91
78665;BME280;67981;51.022;-2.870;2023-04-03T03:03:26;102660.72;;;2.34;86.44
78665;BME280;67981;51.022;-2.870;2023-04-03T03:06:03;102659.34;;;2.37;86.71
78665;BME280;67981;51.022;-2.870;2023-04-03T03:08:29;102657.38;;;2.25;87.05
78665;BME280;67981;51.022;-2.870;2023-04-03T03:10:54;102660.03;;;2.26;86.76
78665;BME280;67981;51.022;-2.870;2023-04-03T03:13:20;102642.91;;;2.15;87.32
78665;BME280;67981;51.022;-2.870;2023-04-03T03:15:45;102658.66;;;2.11;87.14
78665;BME280;67981;51.022;-2.870;2023-04-03T03:18:10;102648.41;;;2.01;87.49
78665;BME280;67981;51.022;-2.870;2023-04-03T03:20:36;102649.56;;;1.86;87.23
78665;BME280;67981;51.022;-2.870;2023-04-03T03:23:01;102644.28;;;1.93;87.13
78665;BME280;67981;51.022;-2.870;2023-04-03T03:25:27;102657.88;;;1.75;86.95
78665;BME280;67981;51.022;-2.870;2023-04-03T03:27:52;102656.25;;;1.67;86.92
78665;BME280;67981;51.022;-2.870;2023-04-03T03:30:17;102656.72;;;1.63;87.49
78665;BME280;67981;51.022;-2.870;2023-04-03T03:32:43;102653.78;;;1.50;87.56
78665;BME280;67981;51.022;-2.870;2023-04-03T03:35:08;102659.81;;;1.42;88.02
78665;BME280;67981;51.022;-2.870;2023-04-03T03:37:34;102663.50;;;1.27;88.34
78665;BME280;67981;51.022;-2.870;2023-04-03T03:39:59;102653.47;;;1.20;88.84
78665;BME280;67981;51.022;-2.870;2023-04-03T03:42:25;102658.59;;;1.11;88.43
78665;BME280;67981;51.022;-2.870;2023-04-03T03:44:50;102666.56;;;1.06;88.36
78665;BME280;67981;51.022;-2.870;2023-04-03T03:47:16;102667.34;;;0.88;88.77
78665;BME280;67981;51.022;-2.870;2023-04-03T03:49:42;102666.78;;;0.73;89.34
78665;BME280;67981;51.022;-2.870;2023-04-03T03:52:07;102665.84;;;0.90;88.90
78665;BME280;67981;51.022;-2.870;2023-04-03T03:54:36;102653.44;;;0.93;88.42
78665;BME280;67981;51.022;-2.870;2023-04-03T03:57:01;102650.47;;;0.88;88.35
78665;BME280;67981;51.022;-2.870;2023-04-03T03:59:26;102647.94;;;0.80;89.06
78665;BME280;67981;51.022;-2.870;2023-04-03T04:01:52;102657.31;;;0.81;88.97
78665;BME280;67981;51.022;-2.870;2023-04-03T04:04:17;102640.03;;;0.68;88.54
78665;BME280;67981;51.022;-2.870;2023-04-03T04:06:42;102638.25;;;0.59;88.71
78665;BME280;67981;51.022;-2.870;2023-04-03T04:09:09;102643.66;;;0.45;89.50
78665;BME280;67981;51.022;-2.870;2023-04-03T04:11:34;102641.69;;;0.51;89.62
78665;BME280;67981;51.022;-2.870;2023-04-03T04:14:00;102636.63;;;0.51;89.51
78665;BME280;67981;51.022;-2.870;2023-04-03T04:16:25;102642.91;;;0.54;88.75
78665;BME280;67981;51.022;-2.870;2023-04-03T04:18:50;102645.28;;;0.53;89.21
78665;BME280;67981;51.022;-2.870;2023-04-03T04:21:16;102636.91;;;0.54;88.63
78665;BME280;67981;51.022;-2.870;2023-04-03T04:23:41;102630.78;;;0.52;89.08
78665;BME280;67981;51.022;-2.870;2023-04-03T04:26:06;102641.06;;;0.53;88.85
78665;BME280;67981;51.022;-2.870;2023-04-03T04:28:32;102637.81;;;0.54;89.14
78665;BME280;67981;51.022;-2.870;2023-04-03T04:30:57;102625.69;;;0.52;89.26
78665;BME280;67981;51.022;-2.870;2023-04-03T04:33:23;102621.81;;;0.55;89.43
78665;BME280;67981;51.022;-2.870;2023-04-03T04:35:48;102624.50;;;0.57;89.39
78665;BME280;67981;51.022;-2.870;2023-04-03T04:38:13;102630.75;;;0.69;89.68
78665;BME280;67981;51.022;-2.870;2023-04-03T04:40:39;102629.28;;;0.71;89.69
78665;BME280;67981;51.022;-2.870;2023-04-03T04:43:05;102629.38;;;0.81;90.19
78665;BME280;67981;51.022;-2.870;2023-04-03T04:45:31;102630.13;;;0.80;90.32
78665;BME280;67981;51.022;-2.870;2023-04-03T04:47:56;102635.50;;;0.83;90.33
78665;BME280;67981;51.022;-2.870;2023-04-03T04:50:22;102626.31;;;1.02;90.44
78665;BME280;67981;51.022;-2.870;2023-04-03T04:52:47;102607.69;;;0.93;89.88
78665;BME280;67981;51.022;-2.870;2023-04-03T04:55:13;102633.91;;;1.19;90.22
78665;BME280;67981;51.022;-2.870;2023-04-03T04:57:38;102622.81;;;1.27;90.10
78665;BME280;67981;51.022;-2.870;2023-04-03T05:00:04;102613.91;;;1.40;89.82
78665;BME280;67981;51.022;-2.870;2023-04-03T05:02:30;102610.69;;;1.52;89.71
78665;BME280;67981;51.022;-2.870;2023-04-03T05:04:56;102612.59;;;1.63;89.08
78665;BME280;67981;51.022;-2.870;2023-04-03T05:07:22;102617.06;;;1.65;89.28
78665;BME280;67981;51.022;-2.870;2023-04-03T05:09:47;102614.06;;;1.69;89.16
78665;BME280;67981;51.022;-2.870;2023-04-03T05:12:12;102608.19;;;1.70;88.61
78665;BME280;67981;51.022;-2.870;2023-04-03T05:14:38;102606.69;;;1.72;88.63
78665;BME280;67981;51.022;-2.870;2023-04-03T05:17:03;102604.16;;;1.72;88.37
78665;BME280;67981;51.022;-2.870;2023-04-03T05:19:28;102595.13;;;1.76;88.42
78665;BME280;67981;51.022;-2.870;2023-04-03T05:21:54;102596.78;;;1.75;88.28
78665;BME280;67981;51.022;-2.870;2023-04-03T05:24:20;102598.16;;;1.72;88.53
78665;BME280;67981;51.022;-2.870;2023-04-03T05:26:45;102602.06;;;1.68;88.25
78665;BME280;67981;51.022;-2.870;2023-04-03T05:29:11;102599.66;;;1.70;88.26
78665;BME280;67981;51.022;-2.870;2023-04-03T05:31:36;102606.41;;;1.69;88.39
78665;BME280;67981;51.022;-2.870;2023-04-03T05:34:02;102607.16;;;1.68;88.44
78665;BME280;67981;51.022;-2.870;2023-04-03T05:36:27;102609.84;;;1.70;88.43
78665;BME280;67981;51.022;-2.870;2023-04-03T05:38:53;102600.59;;;1.62;88.30
78665;BME280;67981;51.022;-2.870;2023-04-03T05:41:18;102580.50;;;1.46;88.38
78665;BME280;67981;51.022;-2.870;2023-04-03T05:43:44;102606.19;;;1.58;88.53
78665;BME280;67981;51.022;-2.870;2023-04-03T05:46:11;102607.38;;;1.61;88.10
78665;BME280;67981;51.022;-2.870;2023-04-03T05:48:37;102604.34;;;1.65;88.19
78665;BME280;67981;51.022;-2.870;2023-04-03T05:51:03;102596.00;;;1.58;88.23
78665;BME280;67981;51.022;-2.870;2023-04-03T05:53:29;102603.78;;;1.59;88.42
78665;BME280;67981;51.022;-2.870;2023-04-03T05:55:57;102595.72;;;1.55;88.43
78665;BME280;67981;51.022;-2.870;2023-04-03T05:58:23;102597.47;;;1.64;87.77
78665;BME280;67981;51.022;-2.870;2023-04-03T06:00:48;102586.38;;;1.64;87.71
78665;BME280;67981;51.022;-2.870;2023-04-03T06:03:13;102596.84;;;1.67;87.84
78665;BME280;67981;51.022;-2.870;2023-04-03T06:05:39;102593.25;;;1.65;87.73
78665;BME280;67981;51.022;-2.870;2023-04-03T06:08:04;102606.09;;;1.66;87.76
78665;BME280;67981;51.022;-2.870;2023-04-03T06:10:30;102599.66;;;1.70;87.29
78665;BME280;67981;51.022;-2.870;2023-04-03T06:12:56;102609.97;;;1.71;87.68
78665;BME280;67981;51.022;-2.870;2023-04-03T06:15:21;102604.47;;;1.67;87.31
78665;BME280;67981;51.022;-2.870;2023-04-03T06:17:47;102603.25;;;1.72;87.40
78665;BME280;67981;51.022;-2.870;2023-04-03T06:20:12;102602.09;;;2.81;92.29
78665;BME280;67981;51.022;-2.870;2023-04-03T06:22:38;102604.41;;;2.49;84.39
78665;BME280;67981;51.022;-2.870;2023-04-03T06:25:04;102601.94;;;2.22;85.01
78665;BME280;67981;51.022;-2.870;2023-04-03T06:27:30;102603.06;;;2.16;85.05
78665;BME280;67981;51.022;-2.870;2023-04-03T06:29:55;102601.69;;;2.01;85.47
78665;BME280;67981;51.022;-2.870;2023-04-03T06:32:21;102612.53;;;2.08;85.91
78665;BME280;67981;51.022;-2.870;2023-04-03T06:34:46;102590.31;;;1.97;86.12
78665;BME280;67981;51.022;-2.870;2023-04-03T06:37:17;102609.16;;;2.18;86.05
78665;BME280;67981;51.022;-2.870;2023-04-03T06:39:42;102608.69;;;2.22;85.73
78665;BME280;67981;51.022;-2.870;2023-04-03T06:42:08;102609.25;;;2.28;85.40
78665;BME280;67981;51.022;-2.870;2023-04-03T06:44:33;102606.63;;;2.36;85.61
78665;BME280;67981;51.022;-2.870;2023-04-03T06:47:01;102608.47;;;2.47;84.81
78665;BME280;67981;51.022;-2.870;2023-04-03T06:49:26;102593.16;;;2.47;84.10
78665;BME280;67981;51.022;-2.870;2023-04-03T06:51:51;102605.97;;;2.57;83.80
78665;BME280;67981;51.022;-2.870;2023-04-03T06:54:17;102602.50;;;2.57;83.75
78665;BME280;67981;51.022;-2.870;2023-04-03T06:56:43;102616.19;;;2.67;83.47
78665;BME280;67981;51.022;-2.870;2023-04-03T06:59:10;102613.81;;;2.69;83.06
78665;BME280;67981;51.022;-2.870;2023-04-03T07:01:36;102601.06;;;2.69;83.25
78665;BME280;67981;51.022;-2.870;2023-04-03T07:04:02;102594.28;;;2.69;82.85
78665;BME280;67981;51.022;-2.870;2023-04-03T07:06:27;102614.50;;;2.86;82.42
78665;BME280;67981;51.022;-2.870;2023-04-03T07:08:53;102606.47;;;2.92;81.89
78665;BME280;67981;51.022;-2.870;2023-04-03T07:11:19;102613.91;;;2.99;82.51
78665;BME280;67981;51.022;-2.870;2023-04-03T07:13:45;102613.53;;;3.05;82.72
78665;BME280;67981;51.022;-2.870;2023-04-03T07:16:11;102612.25;;;3.10;81.55
78665;BME280;67981;51.022;-2.870;2023-04-03T07:18:37;102587.50;;;2.99;81.20
78665;BME280;67981;51.022;-2.870;2023-04-03T07:21:03;102605.13;;;3.06;81.23
78665;BME280;67981;51.022;-2.870;2023-04-03T07:23:29;102607.03;;;3.08;81.54
78665;BME280;67981;51.022;-2.870;2023-04-03T07:25:55;102598.50;;;3.18;81.57
78665;BME280;67981;51.022;-2.870;2023-04-03T07:28:21;102614.13;;;3.41;81.15
78665;BME280;67981;51.022;-2.870;2023-04-03T07:30:49;102608.13;;;3.40;80.81
78665;BME280;67981;51.022;-2.870;2023-04-03T07:33:16;102613.34;;;3.42;79.60
78665;BME280;67981;51.022;-2.870;2023-04-03T07:35:43;102608.13;;;3.50;80.52
78665;BME280;67981;51.022;-2.870;2023-04-03T07:38:09;102622.66;;;3.51;80.69
78665;BME280;67981;51.022;-2.870;2023-04-03T07:40:36;102610.94;;;3.53;79.87
78665;BME280;67981;51.022;-2.870;2023-04-03T07:43:01;102612.59;;;3.63;79.61
78665;BME280;67981;51.022;-2.870;2023-04-03T07:45:27;102616.94;;;3.74;79.59
78665;BME280;67981;51.022;-2.870;2023-04-03T07:47:53;102630.09;;;3.88;80.38
78665;BME280;67981;51.022;-2.870;2023-04-03T07:50:18;102620.66;;;3.87;79.97
78665;BME280;67981;51.022;-2.870;2023-04-03T07:52:44;102625.63;;;3.86;78.63
78665;BME280;67981;51.022;-2.870;2023-04-03T07:55:09;102629.84;;;3.95;79.88
78665;BME280;67981;51.022;-2.870;2023-04-03T07:57:35;102619.75;;;3.87;79.65
78665;BME280;67981;51.022;-2.870;2023-04-03T08:00:02;102622.44;;;3.88;79.81
78665;BME280;67981;51.022;-2.870;2023-04-03T08:02:27;102627.41;;;4.07;79.78
78665;BME280;67981;51.022;-2.870;2023-04-03T08:04:53;102627.41;;;4.17;78.83
78665;BME280;67981;51.022;-2.870;2023-04-03T08:07:18;102612.81;;;4.16;78.26
78665;BME280;67981;51.022;-2.870;2023-04-03T08:09:43;102624.31;;;4.21;78.79
78665;BME280;67981;51.022;-2.870;2023-04-03T08:12:10;102611.41;;;4.29;79.18
78665;BME280;67981;51.022;-2.870;2023-04-03T08:14:36;102638.84;;;4.42;77.67
78665;BME280;67981;51.022;-2.870;2023-04-03T08:17:02;102636.41;;;4.44;76.83
78665;BME280;67981;51.022;-2.870;2023-04-03T08:19:29;102623.13;;;4.48;77.09
78665;BME280;67981;51.022;-2.870;2023-04-03T08:21:55;102624.22;;;4.61;77.11
78665;BME280;67981;51.022;-2.870;2023-04-03T08:24:21;102626.88;;;4.73;77.95
78665;BME280;67981;51.022;-2.870;2023-04-03T08:26:46;102633.00;;;4.75;76.76
78665;BME280;67981;51.022;-2.870;2023-04-03T08:29:11;102635.13;;;4.80;76.24
78665;BME280;67981;51.022;-2.870;2023-04-03T08:31:37;102632.47;;;4.79;76.57
78665;BME280;67981;51.022;-2.870;2023-04-03T08:34:02;102639.28;;;5.00;76.61
78665;BME280;67981;51.022;-2.870;2023-04-03T08:36:29;102631.44;;;5.08;76.46
78665;BME280;67981;51.022;-2.870;2023-04-03T08:38:55;102629.91;;;5.10;76.05
78665;BME280;67981;51.022;-2.870;2023-04-03T08:46:40;102620.66;;;5.34;75.35
78665;BME280;67981;51.022;-2.870;2023-04-03T08:49:17;102629.00;;;5.31;75.79
78665;BME280;67981;51.022;-2.870;2023-04-03T08:51:47;102624.72;;;5.42;75.15
78665;BME280;67981;51.022;-2.870;2023-04-03T08:54:22;102620.84;;;5.25;74.73
78665;BME280;67981;51.022;-2.870;2023-04-03T08:56:49;102624.72;;;5.42;74.93
78665;BME280;67981;51.022;-2.870;2023-04-03T08:59:22;102627.56;;;5.56;75.26
78665;BME280;67981;51.022;-2.870;2023-04-03T09:01:49;102615.09;;;5.61;75.16
78665;BME280;67981;51.022;-2.870;2023-04-03T09:04:16;102624.25;;;5.69;74.20
78665;BME280;67981;51.022;-2.870;2023-04-03T09:06:55;102613.03;;;5.78;75.54
78665;BME280;67981;51.022;-2.870;2023-04-03T09:09:39;102623.16;;;5.99;75.42
78665;BME280;67981;51.022;-2.870;2023-04-03T09:12:24;102610.88;;;5.95;74.52
78665;BME280;67981;51.022;-2.870;2023-04-03T09:15:30;102620.72;;;6.12;75.53
78665;BME280;67981;51.022;-2.870;2023-04-03T09:18:03;102606.00;;;6.09;73.84
78665;BME280;67981;51.022;-2.870;2023-04-03T09:23:11;102604.47;;;6.23;75.44
78665;BME280;67981;51.022;-2.870;2023-04-03T09:25:38;102590.53;;;6.31;73.34
78665;BME280;67981;51.022;-2.870;2023-04-03T09:28:04;102592.75;;;6.61;74.22
78665;BME280;67981;51.022;-2.870;2023-04-03T09:30:35;102603.63;;;6.93;72.54
78665;BME280;67981;51.022;-2.870;2023-04-03T09:33:00;102586.28;;;7.63;72.00
78665;BME280;67981;51.022;-2.870;2023-04-03T09:35:29;102587.63;;;7.33;67.42
78665;BME280;67981;51.022;-2.870;2023-04-03T09:38:01;102583.22;;;7.19;69.03
78665;BME280;67981;51.022;-2.870;2023-04-03T09:43:00;102580.28;;;7.38;68.55
78665;BME280;67981;51.022;-2.870;2023-04-03T09:45:35;102569.56;;;7.56;68.55
78665;BME280;67981;51.022;-2.870;2023-04-03T09:51:01;102593.88;;;7.61;67.31
78665;BME280;67981;51.022;-2.870;2023-04-03T10:01:33;102588.81;;;7.87;67.88
78665;BME280;67981;51.022;-2.870;2023-04-03T10:04:11;102592.69;;;7.94;67.67
78665;BME280;67981;51.022;-2.870;2023-04-03T10:06:49;102597.72;;;7.79;68.16
78665;BME280;67981;51.022;-2.870;2023-04-03T10:09:30;102581.88;;;7.86;67.29
78665;BME280;67981;51.022;-2.870;2023-04-03T10:11:58;102582.50;;;7.95;67.75
78665;BME280;67981;51.022;-2.870;2023-04-03T10:14:24;102585.75;;;8.30;66.75
78665;BME280;67981;51.022;-2.870;2023-04-03T10:19:55;102572.16;;;8.72;63.98
78665;BME280;67981;51.022;-2.870;2023-04-03T10:25:04;102578.31;;;8.48;65.08
78665;BME280;67981;51.022;-2.870;2023-04-03T10:35:49;102569.09;;;8.78;63.27
78665;BME280;67981;51.022;-2.870;2023-04-03T10:40:52;102571.41;;;9.01;63.84
78665;BME280;67981;51.022;-2.870;2023-04-03T10:46:13;102546.63;;;9.72;60.53
78665;BME280;67981;51.022;-2.870;2023-04-03T10:51:29;102560.47;;;9.60;61.88
78665;BME280;67981;51.022;-2.870;2023-04-03T10:54:20;102529.53;;;9.60;63.06
78665;BME280;67981;51.022;-2.870;2023-04-03T10:57:12;102548.38;;;9.73;60.96
78665;BME280;67981;51.022;-2.870;2023-04-03T10:59:48;102551.13;;;9.76;60.56
78665;BME280;67981;51.022;-2.870;2023-04-03T11:04:59;102550.91;;;9.44;58.89
78665;BME280;67981;51.022;-2.870;2023-04-03T11:07:29;102549.59;;;9.51;58.56
78665;BME280;67981;51.022;-2.870;2023-04-03T11:10:04;102532.91;;;9.59;58.20
78665;BME280;67981;51.022;-2.870;2023-04-03T11:15:02;102531.59;;;10.09;58.50
78665;BME280;67981;51.022;-2.870;2023-04-03T11:17:33;102539.13;;;9.48;59.92
78665;BME280;67981;51.022;-2.870;2023-04-03T11:22:41;102530.78;;;9.52;60.36
78665;BME280;67981;51.022;-2.870;2023-04-03T11:27:45;102517.97;;;9.53;59.94
78665;BME280;67981;51.022;-2.870;2023-04-03T11:35:36;102522.34;;;9.83;59.82
78665;BME280;67981;51.022;-2.870;2023-04-03T11:38:04;102525.09;;;9.72;59.47
78665;BME280;67981;51.022;-2.870;2023-04-03T11:40:35;102527.06;;;9.90;59.16
78665;BME280;67981;51.022;-2.870;2023-04-03T11:43:07;102518.09;;;9.69;58.62
78665;BME280;67981;51.022;-2.870;2023-04-03T11:46:04;102528.75;;;9.61;58.97
78665;BME280;67981;51.022;-2.870;2023-04-03T11:50:58;102522.28;;;9.25;59.22
78665;BME280;67981;51.022;-2.870;2023-04-03T11:53:36;102525.88;;;9.42;60.09
78665;BME280;67981;51.022;-2.870;2023-04-03T11:58:33;102508.19;;;9.62;59.17
78665;BME280;67981;51.022;-2.870;2023-04-03T12:13:39;102496.56;;;10.13;57.58
78665;BME280;67981;51.022;-2.870;2023-04-03T12:16:28;102487.91;;;10.12;56.15
78665;BME280;67981;51.022;-2.870;2023-04-03T12:19:03;102481.69;;;9.94;56.54
78665;BME280;67981;51.022;-2.870;2023-04-03T12:26:44;102481.38;;;10.33;56.88
78665;BME280;67981;51.022;-2.870;2023-04-03T12:38:11;102475.88;;;10.58;56.29
78665;BME280;67981;51.022;-2.870;2023-04-03T12:51:14;102460.09;;;10.68;55.81
78665;BME280;67981;51.022;-2.870;2023-04-03T12:53:40;102454.50;;;10.76;55.70
78665;BME280;67981;51.022;-2.870;2023-04-03T12:56:24;102459.09;;;10.66;54.96
78665;BME280;67981;51.022;-2.870;2023-04-03T12:58:51;102455.34;;;10.45;55.56
78665;BME280;67981;51.022;-2.870;2023-04-03T13:01:19;102451.91;;;10.60;56.15
78665;BME280;67981;51.022;-2.870;2023-04-03T13:03:52;102444.59;;;10.68;54.83
78665;BME280;67981;51.022;-2.870;2023-04-03T13:06:21;102440.13;;;10.81;54.98
78665;BME280;67981;51.022;-2.870;2023-04-03T13:08:59;102447.72;;;10.94;55.29
78665;BME280;67981;51.022;-2.870;2023-04-03T13:11:37;102442.00;;;11.00;54.67
78665;BME280;67981;51.022;-2.870;2023-04-03T13:14:15;102430.41;;;11.25;53.24
78665;BME280;67981;51.022;-2.870;2023-04-03T13:16:40;102440.78;;;11.43;54.01
78665;BME280;67981;51.022;-2.870;2023-04-03T13:19:17;102436.63;;;11.63;52.78
78665;BME280;67981;51.022;-2.870;2023-04-03T13:21:44;102438.22;;;11.61;52.11
78665;BME280;67981;51.022;-2.870;2023-04-03T13:24:10;102434.22;;;11.66;51.46
78665;BME280;67981;51.022;-2.870;2023-04-03T13:26:36;102429.69;;;11.79;53.18
78665;BME280;67981;51.022;-2.870;2023-04-03T13:29:06;102432.75;;;11.71;51.29
78665;BME280;67981;51.022;-2.870;2023-04-03T13:31:35;102415.44;;;11.70;52.14
78665;BME280;67981;51.022;-2.870;2023-04-03T13:34:16;102413.81;;;11.89;51.60
78665;BME280;67981;51.022;-2.870;2023-04-03T13:36:56;102415.13;;;11.81;52.51
78665;BME280;67981;51.022;-2.870;2023-04-03T13:39:26;102413.34;;;12.15;51.01
78665;BME280;67981;51.022;-2.870;2023-04-03T13:41:58;102402.13;;;12.34;50.65
78665;BME280;67981;51.022;-2.870;2023-04-03T13:44:36;102407.94;;;12.47;50.51
78665;BME280;67981;51.022;-2.870;2023-04-03T13:49:37;102389.56;;;12.41;49.74
78665;BME280;67981;51.022;-2.870;2023-04-03T13:52:22;102401.47;;;12.38;51.68
78665;BME280;67981;51.022;-2.870;2023-04-03T13:54:53;102394.81;;;12.62;51.27
78665;BME280;67981;51.022;-2.870;2023-04-03T13:57:19;102400.19;;;12.47;48.51
78665;BME280;67981;51.022;-2.870;2023-04-03T13:59:45;102386.00;;;12.58;49.79
78665;BME280;67981;51.022;-2.870;2023-04-03T14:05:08;102395.06;;;12.68;47.98
78665;BME280;67981;51.022;-2.870;2023-04-03T14:07:34;102379.13;;;12.40;47.81
78665;BME280;67981;51.022;-2.870;2023-04-03T14:09:59;102386.97;;;12.41;47.80
78665;BME280;67981;51.022;-2.870;2023-04-03T14:12:43;102378.06;;;12.17;47.76
78665;BME280;67981;51.022;-2.870;2023-04-03T14:15:30;102379.13;;;12.21;49.01
78665;BME280;67981;51.022;-2.870;2023-04-03T14:17:56;102375.28;;;11.95;49.36
78665;BME280;67981;51.022;-2.870;2023-04-03T14:20:24;102379.69;;;12.15;49.96
78665;BME280;67981;51.022;-2.870;2023-04-03T14:22:51;102376.69;;;12.06;49.97
78665;BME280;67981;51.022;-2.870;2023-04-03T14:25:16;102363.59;;;12.21;50.07
78665;BME280;67981;51.022;-2.870;2023-04-03T14:27:47;102368.81;;;12.22;49.26
78665;BME280;67981;51.022;-2.870;2023-04-03T14:30:20;102359.34;;;12.23;50.33
78665;BME280;67981;51.022;-2.870;2023-04-03T14:32:46;102352.69;;;11.91;50.41
78665;BME280;67981;51.022;-2.870;2023-04-03T14:35:13;102344.41;;;11.63;51.37
78665;BME280;67981;51.022;-2.870;2023-04-03T14:37:38;102350.50;;;12.00;50.41
78665;BME280;67981;51.022;-2.870;2023-04-03T14:40:05;102341.72;;;12.14;50.58
78665;BME280;67981;51.022;-2.870;2023-04-03T14:42:34;102331.38;;;12.33;49.14
78665;BME280;67981;51.022;-2.870;2023-04-03T14:45:03;102323.66;;;12.35;48.74
78665;BME280;67981;51.022;-2.870;2023-04-03T14:47:29;102328.63;;;12.68;50.02